sensor_id;sensor_type;location;lat;lon;timestamp;P1;durP1;ratioP1;P2;durP2;ratioP2
24751;SDS011;27246;52.376;4.628;2022-09-16T00:03:40;6.72;;;1.10;;
24751;SDS011;27246;52.376;4.628;2022-09-16T00:08:42;2.70;;;0.93;;
24751;SDS011;27246;52.376;4.628;2022-09-16T00:13:45;4.10;;;1.20;;
24751;SDS011;27246;52.376;4.628;2022-09-16T00:18:48;5.38;;;0.77;;
24751;SDS011;27246;52.376;4.628;2022-09-16T00:23:54;3.00;;;0.63;;
24751;SDS011;27246;52.376;4.628;2022-09-16T00:28:56;0.98;;;0.40;;
24751;SDS011;27246;52.376;4.628;2022-09-16T00:33:58;5.20;;;0.50;;
24751;SDS011;27246;52.376;4.628;2022-09-16T00:38:59;2.63;;;0.55;;
24751;SDS011;27246;52.376;4.628;2022-09-16T00:44:02;0.63;;;0.28;;
24751;SDS011;27246;52.376;4.628;2022-09-16T00:49:10;0.73;;;0.30;;
24751;SDS011;27246;52.376;4.628;2022-09-16T00:54:17;3.33;;;0.32;;
24751;SDS011;27246;52.376;4.628;2022-09-16T00:59:24;4.38;;;0.55;;
24751;SDS011;27246;52.376;4.628;2022-09-16T01:04:31;3.55;;;0.52;;
24751;SDS011;27246;52.376;4.628;2022-09-16T01:09:35;2.88;;;0.43;;
24751;SDS011;27246;52.376;4.628;2022-09-16T01:14:38;5.25;;;0.60;;
24751;SDS011;27246;52.376;4.628;2022-09-16T01:36:16;4.60;;;0.55;;
24751;SDS011;27246;52.376;4.628;2022-09-16T01:46:52;1.48;;;0.60;;
24751;SDS011;27246;52.376;4.628;2022-09-16T01:57:38;2.30;;;0.63;;
24751;SDS011;27246;52.376;4.628;2022-09-16T02:07:58;3.40;;;0.55;;
24751;SDS011;27246;52.376;4.628;2022-09-16T02:13:07;4.43;;;0.47;;
24751;SDS011;27246;52.376;4.628;2022-09-16T02:18:16;2.35;;;0.65;;
24751;SDS011;27246;52.376;4.628;2022-09-16T02:23:24;1.77;;;0.60;;
24751;SDS011;27246;52.376;4.628;2022-09-16T02:28:31;4.68;;;1.00;;
24751;SDS011;27246;52.376;4.628;2022-09-16T02:33:37;1.60;;;0.38;;
24751;SDS011;27246;52.376;4.628;2022-09-16T02:38:46;3.55;;;0.60;;
24751;SDS011;27246;52.376;4.628;2022-09-16T02:43:52;4.63;;;0.60;;
24751;SDS011;27246;52.376;4.628;2022-09-16T02:54:19;2.30;;;0.67;;
24751;SDS011;27246;52.376;4.628;2022-09-16T02:59:30;4.43;;;0.88;;
24751;SDS011;27246;52.376;4.628;2022-09-16T03:10:03;4.32;;;1.02;;
24751;SDS011;27246;52.376;4.628;2022-09-16T03:30:51;3.60;;;0.63;;
24751;SDS011;27246;52.376;4.628;2022-09-16T03:36:01;1.08;;;0.50;;
24751;SDS011;27246;52.376;4.628;2022-09-16T03:41:06;2.72;;;0.55;;
24751;SDS011;27246;52.376;4.628;2022-09-16T03:46:10;3.28;;;0.63;;
24751;SDS011;27246;52.376;4.628;2022-09-16T03:51:12;1.67;;;0.60;;
24751;SDS011;27246;52.376;4.628;2022-09-16T03:56:13;5.18;;;0.57;;
24751;SDS011;27246;52.376;4.628;2022-09-16T04:01:15;3.70;;;0.70;;
24751;SDS011;27246;52.376;4.628;2022-09-16T04:06:17;4.35;;;0.75;;
24751;SDS011;27246;52.376;4.628;2022-09-16T04:11:18;5.43;;;0.80;;
24751;SDS011;27246;52.376;4.628;2022-09-16T04:16:20;1.10;;;0.40;;
24751;SDS011;27246;52.376;4.628;2022-09-16T04:21:22;2.17;;;0.60;;
24751;SDS011;27246;52.376;4.628;2022-09-16T04:26:25;3.28;;;1.10;;
24751;SDS011;27246;52.376;4.628;2022-09-16T04:31:27;6.18;;;0.60;;
24751;SDS011;27246;52.376;4.628;2022-09-16T04:36:29;5.47;;;1.35;;
24751;SDS011;27246;52.376;4.628;2022-09-16T04:41:31;4.53;;;1.08;;
24751;SDS011;27246;52.376;4.628;2022-09-16T04:46:33;6.10;;;1.30;;
24751;SDS011;27246;52.376;4.628;2022-09-16T04:51:35;5.35;;;0.57;;
24751;SDS011;27246;52.376;4.628;2022-09-16T04:56:36;3.53;;;1.00;;
24751;SDS011;27246;52.376;4.628;2022-09-16T05:01:38;2.20;;;0.60;;
24751;SDS011;27246;52.376;4.628;2022-09-16T05:06:40;2.97;;;0.35;;
24751;SDS011;27246;52.376;4.628;2022-09-16T05:11:42;3.55;;;1.15;;
24751;SDS011;27246;52.376;4.628;2022-09-16T05:16:44;1.42;;;0.80;;
24751;SDS011;27246;52.376;4.628;2022-09-16T05:21:46;3.60;;;1.02;;
24751;SDS011;27246;52.376;4.628;2022-09-16T05:26:48;3.35;;;1.35;;
24751;SDS011;27246;52.376;4.628;2022-09-16T05:31:49;7.20;;;0.82;;
24751;SDS011;27246;52.376;4.628;2022-09-16T05:36:51;5.68;;;0.68;;
24751;SDS011;27246;52.376;4.628;2022-09-16T05:41:55;4.28;;;0.88;;
24751;SDS011;27246;52.376;4.628;2022-09-16T05:46:59;2.78;;;0.57;;
24751;SDS011;27246;52.376;4.628;2022-09-16T05:52:01;3.65;;;0.80;;
24751;SDS011;27246;52.376;4.628;2022-09-16T05:57:03;6.25;;;1.20;;
24751;SDS011;27246;52.376;4.628;2022-09-16T06:02:07;6.43;;;1.10;;
24751;SDS011;27246;52.376;4.628;2022-09-16T06:07:09;8.43;;;1.50;;
24751;SDS011;27246;52.376;4.628;2022-09-16T06:12:11;7.45;;;1.10;;
24751;SDS011;27246;52.376;4.628;2022-09-16T06:17:12;4.25;;;1.25;;
24751;SDS011;27246;52.376;4.628;2022-09-16T06:22:14;4.10;;;0.70;;
24751;SDS011;27246;52.376;4.628;2022-09-16T06:27:16;2.80;;;0.70;;
24751;SDS011;27246;52.376;4.628;2022-09-16T06:32:17;4.65;;;0.90;;
24751;SDS011;27246;52.376;4.628;2022-09-16T06:37:19;8.65;;;1.33;;
24751;SDS011;27246;52.376;4.628;2022-09-16T06:42:21;4.78;;;1.67;;
24751;SDS011;27246;52.376;4.628;2022-09-16T06:47:23;2.75;;;0.73;;
24751;SDS011;27246;52.376;4.628;2022-09-16T06:52:25;4.72;;;1.13;;
24751;SDS011;27246;52.376;4.628;2022-09-16T06:57:27;5.22;;;0.95;;
24751;SDS011;27246;52.376;4.628;2022-09-16T07:02:30;5.67;;;0.80;;
24751;SDS011;27246;52.376;4.628;2022-09-16T07:07:32;8.55;;;1.10;;
24751;SDS011;27246;52.376;4.628;2022-09-16T07:12:35;3.55;;;0.98;;
24751;SDS011;27246;52.376;4.628;2022-09-16T07:17:36;12.98;;;2.10;;
24751;SDS011;27246;52.376;4.628;2022-09-16T07:22:38;8.68;;;1.33;;
24751;SDS011;27246;52.376;4.628;2022-09-16T07:27:40;3.78;;;1.00;;
24751;SDS011;27246;52.376;4.628;2022-09-16T07:32:42;6.97;;;1.70;;
24751;SDS011;27246;52.376;4.628;2022-09-16T07:37:44;7.68;;;1.55;;
24751;SDS011;27246;52.376;4.628;2022-09-16T07:42:45;6.43;;;2.00;;
24751;SDS011;27246;52.376;4.628;2022-09-16T07:47:48;4.82;;;1.00;;
24751;SDS011;27246;52.376;4.628;2022-09-16T07:52:54;2.15;;;1.02;;
24751;SDS011;27246;52.376;4.628;2022-09-16T07:57:56;3.25;;;1.05;;
24751;SDS011;27246;52.376;4.628;2022-09-16T08:02:57;7.60;;;0.88;;
24751;SDS011;27246;52.376;4.628;2022-09-16T08:07:59;4.55;;;0.90;;
24751;SDS011;27246;52.376;4.628;2022-09-16T08:13:08;6.20;;;0.63;;
24751;SDS011;27246;52.376;4.628;2022-09-16T08:18:10;3.67;;;1.00;;
24751;SDS011;27246;52.376;4.628;2022-09-16T08:23:12;1.40;;;0.55;;
24751;SDS011;27246;52.376;4.628;2022-09-16T08:28:15;2.75;;;0.63;;
24751;SDS011;27246;52.376;4.628;2022-09-16T08:33:18;4.05;;;1.00;;
24751;SDS011;27246;52.376;4.628;2022-09-16T08:38:23;4.57;;;0.52;;
24751;SDS011;27246;52.376;4.628;2022-09-16T08:43:35;2.90;;;0.60;;
24751;SDS011;27246;52.376;4.628;2022-09-16T08:49:30;4.05;;;1.08;;
24751;SDS011;27246;52.376;4.628;2022-09-16T08:54:23;4.28;;;1.23;;
24751;SDS011;27246;52.376;4.628;2022-09-16T08:59:30;5.38;;;1.02;;
24751;SDS011;27246;52.376;4.628;2022-09-16T09:04:38;5.82;;;0.90;;
24751;SDS011;27246;52.376;4.628;2022-09-16T09:09:51;7.35;;;0.90;;
24751;SDS011;27246;52.376;4.628;2022-09-16T09:25:57;10.35;;;1.85;;
24751;SDS011;27246;52.376;4.628;2022-09-16T09:36:25;4.15;;;0.50;;
24751;SDS011;27246;52.376;4.628;2022-09-16T09:42:04;4.22;;;0.73;;
24751;SDS011;27246;52.376;4.628;2022-09-16T09:47:10;2.42;;;0.50;;
24751;SDS011;27246;52.376;4.628;2022-09-16T09:52:34;1.70;;;0.60;;
24751;SDS011;27246;52.376;4.628;2022-09-16T10:03:16;2.05;;;0.60;;
24751;SDS011;27246;52.376;4.628;2022-09-16T10:08:26;1.38;;;0.50;;
24751;SDS011;27246;52.376;4.628;2022-09-16T10:13:30;3.30;;;1.00;;
24751;SDS011;27246;52.376;4.628;2022-09-16T10:18:32;6.07;;;1.63;;
24751;SDS011;27246;52.376;4.628;2022-09-16T10:23:34;9.65;;;1.90;;
24751;SDS011;27246;52.376;4.628;2022-09-16T10:28:37;4.88;;;1.45;;
24751;SDS011;27246;52.376;4.628;2022-09-16T10:33:42;5.10;;;1.30;;
24751;SDS011;27246;52.376;4.628;2022-09-16T10:38:52;4.72;;;1.40;;
24751;SDS011;27246;52.376;4.628;2022-09-16T10:44:12;6.65;;;2.40;;
24751;SDS011;27246;52.376;4.628;2022-09-16T10:49:22;6.90;;;2.15;;
24751;SDS011;27246;52.376;4.628;2022-09-16T10:54:28;6.50;;;1.88;;
24751;SDS011;27246;52.376;4.628;2022-09-16T10:59:32;9.65;;;2.25;;
24751;SDS011;27246;52.376;4.628;2022-09-16T11:04:39;5.07;;;1.75;;
24751;SDS011;27246;52.376;4.628;2022-09-16T11:10:16;5.70;;;1.37;;
24751;SDS011;27246;52.376;4.628;2022-09-16T11:15:38;8.88;;;1.45;;
24751;SDS011;27246;52.376;4.628;2022-09-16T11:42:14;8.32;;;1.55;;
24751;SDS011;27246;52.376;4.628;2022-09-16T11:58:21;5.70;;;1.00;;
24751;SDS011;27246;52.376;4.628;2022-09-16T12:08:56;6.00;;;1.05;;
24751;SDS011;27246;52.376;4.628;2022-09-16T12:14:18;8.02;;;1.10;;
24751;SDS011;27246;52.376;4.628;2022-09-16T12:19:35;7.80;;;1.80;;
24751;SDS011;27246;52.376;4.628;2022-09-16T12:25:02;2.83;;;0.90;;
24751;SDS011;27246;52.376;4.628;2022-09-16T12:30:21;4.88;;;1.52;;
24751;SDS011;27246;52.376;4.628;2022-09-16T12:52:07;10.23;;;2.88;;
24751;SDS011;27246;52.376;4.628;2022-09-16T12:57:35;5.27;;;1.63;;
24751;SDS011;27246;52.376;4.628;2022-09-16T13:07:48;4.43;;;0.93;;
24751;SDS011;27246;52.376;4.628;2022-09-16T13:12:54;3.70;;;1.05;;
24751;SDS011;27246;52.376;4.628;2022-09-16T13:18:21;4.35;;;1.20;;
24751;SDS011;27246;52.376;4.628;2022-09-16T13:23:30;4.47;;;0.90;;
24751;SDS011;27246;52.376;4.628;2022-09-16T13:28:36;4.60;;;1.00;;
24751;SDS011;27246;52.376;4.628;2022-09-16T13:33:43;5.30;;;1.52;;
24751;SDS011;27246;52.376;4.628;2022-09-16T13:39:05;8.68;;;1.10;;
24751;SDS011;27246;52.376;4.628;2022-09-16T13:49:49;5.72;;;1.23;;
24751;SDS011;27246;52.376;4.628;2022-09-16T13:54:54;5.80;;;1.25;;
24751;SDS011;27246;52.376;4.628;2022-09-16T14:00:20;5.45;;;1.55;;
24751;SDS011;27246;52.376;4.628;2022-09-16T14:16:26;5.77;;;0.97;;
24751;SDS011;27246;52.376;4.628;2022-09-16T14:21:29;5.75;;;1.45;;
24751;SDS011;27246;52.376;4.628;2022-09-16T14:26:32;6.93;;;1.40;;
24751;SDS011;27246;52.376;4.628;2022-09-16T14:31:37;5.20;;;1.52;;
24751;SDS011;27246;52.376;4.628;2022-09-16T14:36:39;5.10;;;1.25;;
24751;SDS011;27246;52.376;4.628;2022-09-16T14:41:45;3.58;;;0.82;;
24751;SDS011;27246;52.376;4.628;2022-09-16T14:52:16;8.30;;;1.65;;
24751;SDS011;27246;52.376;4.628;2022-09-16T14:57:26;5.60;;;1.45;;
24751;SDS011;27246;52.376;4.628;2022-09-16T15:02:32;5.10;;;1.30;;
24751;SDS011;27246;52.376;4.628;2022-09-16T15:07:40;5.30;;;1.00;;
24751;SDS011;27246;52.376;4.628;2022-09-16T15:13:03;7.35;;;1.23;;
24751;SDS011;27246;52.376;4.628;2022-09-16T15:18:25;8.55;;;2.08;;
24751;SDS011;27246;52.376;4.628;2022-09-16T15:23:29;7.33;;;1.43;;
24751;SDS011;27246;52.376;4.628;2022-09-16T15:28:32;8.95;;;1.50;;
24751;SDS011;27246;52.376;4.628;2022-09-16T15:33:35;5.53;;;1.50;;
24751;SDS011;27246;52.376;4.628;2022-09-16T15:38:42;6.10;;;1.65;;
24751;SDS011;27246;52.376;4.628;2022-09-16T15:43:45;3.00;;;0.52;;
24751;SDS011;27246;52.376;4.628;2022-09-16T15:48:48;9.73;;;1.17;;
24751;SDS011;27246;52.376;4.628;2022-09-16T15:54:01;7.47;;;1.48;;
24751;SDS011;27246;52.376;4.628;2022-09-16T15:59:29;14.30;;;2.25;;
24751;SDS011;27246;52.376;4.628;2022-09-16T16:04:34;7.93;;;1.42;;
24751;SDS011;27246;52.376;4.628;2022-09-16T16:09:40;3.05;;;0.38;;
24751;SDS011;27246;52.376;4.628;2022-09-16T16:14:43;9.43;;;1.55;;
24751;SDS011;27246;52.376;4.628;2022-09-16T16:19:47;6.28;;;1.80;;
24751;SDS011;27246;52.376;4.628;2022-09-16T16:24:50;4.00;;;1.30;;
24751;SDS011;27246;52.376;4.628;2022-09-16T16:29:52;9.25;;;1.30;;
24751;SDS011;27246;52.376;4.628;2022-09-16T16:34:54;10.07;;;2.03;;
24751;SDS011;27246;52.376;4.628;2022-09-16T16:39:58;10.35;;;1.55;;
24751;SDS011;27246;52.376;4.628;2022-09-16T16:45:02;4.10;;;1.40;;
24751;SDS011;27246;52.376;4.628;2022-09-16T16:50:04;7.95;;;2.08;;
24751;SDS011;27246;52.376;4.628;2022-09-16T16:55:06;4.15;;;0.82;;
24751;SDS011;27246;52.376;4.628;2022-09-16T17:00:08;6.53;;;1.52;;
24751;SDS011;27246;52.376;4.628;2022-09-16T17:05:10;8.50;;;1.42;;
24751;SDS011;27246;52.376;4.628;2022-09-16T17:10:12;8.90;;;1.20;;
24751;SDS011;27246;52.376;4.628;2022-09-16T17:15:16;8.48;;;1.60;;
24751;SDS011;27246;52.376;4.628;2022-09-16T17:20:18;6.88;;;1.42;;
24751;SDS011;27246;52.376;4.628;2022-09-16T17:25:20;5.65;;;1.58;;
24751;SDS011;27246;52.376;4.628;2022-09-16T17:30:22;8.30;;;1.50;;
24751;SDS011;27246;52.376;4.628;2022-09-16T17:35:23;5.60;;;1.80;;
24751;SDS011;27246;52.376;4.628;2022-09-16T17:40:25;5.47;;;2.00;;
24751;SDS011;27246;52.376;4.628;2022-09-16T17:45:27;9.23;;;2.22;;
24751;SDS011;27246;52.376;4.628;2022-09-16T17:50:28;7.65;;;1.67;;
24751;SDS011;27246;52.376;4.628;2022-09-16T17:55:30;9.20;;;2.22;;
24751;SDS011;27246;52.376;4.628;2022-09-16T18:00:32;7.25;;;2.00;;
24751;SDS011;27246;52.376;4.628;2022-09-16T18:05:34;7.55;;;1.77;;
24751;SDS011;27246;52.376;4.628;2022-09-16T18:10:40;6.03;;;1.30;;
24751;SDS011;27246;52.376;4.628;2022-09-16T18:15:42;7.43;;;1.52;;
24751;SDS011;27246;52.376;4.628;2022-09-16T18:20:44;3.80;;;1.05;;
24751;SDS011;27246;52.376;4.628;2022-09-16T18:25:50;6.65;;;2.00;;
24751;SDS011;27246;52.376;4.628;2022-09-16T18:31:00;6.55;;;2.20;;
24751;SDS011;27246;52.376;4.628;2022-09-16T18:36:13;7.43;;;1.33;;
24751;SDS011;27246;52.376;4.628;2022-09-16T18:41:18;7.97;;;2.13;;
24751;SDS011;27246;52.376;4.628;2022-09-16T18:46:23;10.02;;;1.67;;
24751;SDS011;27246;52.376;4.628;2022-09-16T18:51:33;13.07;;;2.45;;
24751;SDS011;27246;52.376;4.628;2022-09-16T19:01:45;9.52;;;3.03;;
24751;SDS011;27246;52.376;4.628;2022-09-16T19:06:52;10.35;;;1.90;;
24751;SDS011;27246;52.376;4.628;2022-09-16T19:11:56;12.10;;;2.90;;
24751;SDS011;27246;52.376;4.628;2022-09-16T19:22:10;8.43;;;2.28;;
24751;SDS011;27246;52.376;4.628;2022-09-16T19:27:12;8.02;;;2.63;;
24751;SDS011;27246;52.376;4.628;2022-09-16T19:32:16;10.82;;;3.50;;
24751;SDS011;27246;52.376;4.628;2022-09-16T19:37:20;9.77;;;2.70;;
24751;SDS011;27246;52.376;4.628;2022-09-16T19:42:27;5.03;;;1.35;;
24751;SDS011;27246;52.376;4.628;2022-09-16T19:47:32;5.32;;;2.40;;
24751;SDS011;27246;52.376;4.628;2022-09-16T19:52:37;10.00;;;2.25;;
24751;SDS011;27246;52.376;4.628;2022-09-16T19:57:41;7.57;;;2.08;;
24751;SDS011;27246;52.376;4.628;2022-09-16T20:02:43;9.88;;;2.50;;
24751;SDS011;27246;52.376;4.628;2022-09-16T20:07:46;7.30;;;2.03;;
24751;SDS011;27246;52.376;4.628;2022-09-16T20:12:47;4.35;;;1.15;;
24751;SDS011;27246;52.376;4.628;2022-09-16T20:17:49;7.38;;;2.15;;
24751;SDS011;27246;52.376;4.628;2022-09-16T20:22:51;8.68;;;2.40;;
24751;SDS011;27246;52.376;4.628;2022-09-16T20:27:52;11.27;;;2.85;;
24751;SDS011;27246;52.376;4.628;2022-09-16T20:32:54;8.50;;;1.80;;
24751;SDS011;27246;52.376;4.628;2022-09-16T20:37:56;5.95;;;1.30;;
24751;SDS011;27246;52.376;4.628;2022-09-16T20:42:58;2.97;;;1.02;;
24751;SDS011;27246;52.376;4.628;2022-09-16T20:48:00;11.40;;;2.88;;
24751;SDS011;27246;52.376;4.628;2022-09-16T20:53:02;5.55;;;1.30;;
24751;SDS011;27246;52.376;4.628;2022-09-16T20:58:03;6.80;;;2.38;;
24751;SDS011;27246;52.376;4.628;2022-09-16T21:03:05;9.77;;;2.05;;
24751;SDS011;27246;52.376;4.628;2022-09-16T21:08:07;7.70;;;2.47;;
24751;SDS011;27246;52.376;4.628;2022-09-16T21:13:08;7.07;;;2.00;;
24751;SDS011;27246;52.376;4.628;2022-09-16T21:18:10;5.18;;;2.08;;
24751;SDS011;27246;52.376;4.628;2022-09-16T21:23:12;5.43;;;1.70;;
24751;SDS011;27246;52.376;4.628;2022-09-16T21:28:14;5.13;;;1.50;;
24751;SDS011;27246;52.376;4.628;2022-09-16T21:33:16;8.13;;;1.85;;
24751;SDS011;27246;52.376;4.628;2022-09-16T21:38:22;5.93;;;1.50;;
24751;SDS011;27246;52.376;4.628;2022-09-16T21:43:25;6.15;;;2.13;;
24751;SDS011;27246;52.376;4.628;2022-09-16T21:48:31;12.45;;;2.78;;
24751;SDS011;27246;52.376;4.628;2022-09-16T21:53:33;6.00;;;1.95;;
24751;SDS011;27246;52.376;4.628;2022-09-16T21:58:47;7.97;;;1.65;;
24751;SDS011;27246;52.376;4.628;2022-09-16T22:09:04;7.20;;;2.03;;
24751;SDS011;27246;52.376;4.628;2022-09-16T22:14:08;11.93;;;2.28;;
24751;SDS011;27246;52.376;4.628;2022-09-16T22:19:13;6.53;;;2.38;;
24751;SDS011;27246;52.376;4.628;2022-09-16T22:24:16;7.53;;;2.28;;
24751;SDS011;27246;52.376;4.628;2022-09-16T22:29:22;8.55;;;2.00;;
24751;SDS011;27246;52.376;4.628;2022-09-16T22:34:24;7.57;;;1.38;;
24751;SDS011;27246;52.376;4.628;2022-09-16T22:39:26;6.55;;;1.15;;
24751;SDS011;27246;52.376;4.628;2022-09-16T22:44:27;6.78;;;1.98;;
24751;SDS011;27246;52.376;4.628;2022-09-16T22:49:29;6.22;;;1.40;;
24751;SDS011;27246;52.376;4.628;2022-09-16T22:54:31;6.32;;;1.60;;
24751;SDS011;27246;52.376;4.628;2022-09-16T22:59:32;6.72;;;1.60;;
24751;SDS011;27246;52.376;4.628;2022-09-16T23:04:34;5.90;;;1.38;;
24751;SDS011;27246;52.376;4.628;2022-09-16T23:09:36;5.80;;;1.50;;
24751;SDS011;27246;52.376;4.628;2022-09-16T23:14:38;5.72;;;1.70;;
24751;SDS011;27246;52.376;4.628;2022-09-16T23:19:39;7.13;;;1.90;;
24751;SDS011;27246;52.376;4.628;2022-09-16T23:24:41;6.72;;;1.70;;
24751;SDS011;27246;52.376;4.628;2022-09-16T23:29:43;8.90;;;2.50;;
24751;SDS011;27246;52.376;4.628;2022-09-16T23:34:44;7.05;;;1.35;;
24751;SDS011;27246;52.376;4.628;2022-09-16T23:39:46;3.58;;;0.80;;
24751;SDS011;27246;52.376;4.628;2022-09-16T23:44:48;3.55;;;1.30;;
24751;SDS011;27246;52.376;4.628;2022-09-16T23:50:00;5.35;;;1.13;;
